sensor_id;sensor_type;location;lat;lon;timestamp;pressure;altitude;pressure_sealevel;temperature;humidity
49178;BME280;35016;55.674;37.468;2023-02-16T00:01:29;99896.88;;;-3.14;66.52
49178;BME280;35016;55.674;37.468;2023-02-16T00:16:23;99897.31;;;-3.26;66.27
49178;BME280;35016;55.674;37.468;2023-02-16T00:18:53;99887.53;;;-3.26;66.91
49178;BME280;35016;55.674;37.468;2023-02-16T00:21:23;99888.53;;;-3.27;67.31
49178;BME280;35016;55.674;37.468;2023-02-16T00:23:51;99886.88;;;-3.28;67.18
49178;BME280;35016;55.674;37.468;2023-02-16T00:26:19;99887.69;;;-3.27;66.93
49178;BME280;35016;55.674;37.468;2023-02-16T00:28:53;99887.53;;;-3.26;66.86
49178;BME280;35016;55.674;37.468;2023-02-16T00:31:22;99887.53;;;-3.26;67.02
49178;BME280;35016;55.674;37.468;2023-02-16T00:33:50;99891.69;;;-3.23;66.74
49178;BME280;35016;55.674;37.468;2023-02-16T00:36:19;99880.91;;;-3.22;66.79
49178;BME280;35016;55.674;37.468;2023-02-16T00:38:46;99883.56;;;-3.22;67.38
49178;BME280;35016;55.674;37.468;2023-02-16T00:41:17;99885.41;;;-3.22;67.54
49178;BME280;35016;55.674;37.468;2023-02-16T00:44:26;99885.22;;;-3.21;67.51
49178;BME280;35016;55.674;37.468;2023-02-16T00:47:03;99879.25;;;-3.23;66.82
49178;BME280;35016;55.674;37.468;2023-02-16T00:49:36;99878.44;;;-3.23;66.78
49178;BME280;35016;55.674;37.468;2023-02-16T00:52:16;;;;-3.29;
49178;BME280;35016;55.674;37.468;2023-02-16T00:54:48;99875.78;;;-3.23;66.75
49178;BME280;35016;55.674;37.468;2023-02-16T00:57:16;99880.41;;;-3.25;67.11
49178;BME280;35016;55.674;37.468;2023-02-16T00:59:47;99884.22;;;-3.28;67.02
49178;BME280;35016;55.674;37.468;2023-02-16T01:02:15;99880.25;;;-3.32;67.69
49178;BME280;35016;55.674;37.468;2023-02-16T01:04:42;99883.72;;;-3.31;67.27
49178;BME280;35016;55.674;37.468;2023-02-16T01:07:14;99881.06;;;-3.31;67.83
49178;BME280;35016;55.674;37.468;2023-02-16T01:10:00;99876.75;;;-3.32;67.48
49178;BME280;35016;55.674;37.468;2023-02-16T01:12:46;99874.09;;;-3.32;67.31
49178;BME280;35016;55.674;37.468;2023-02-16T01:15:21;99879.91;;;-3.29;67.44
49178;BME280;35016;55.674;37.468;2023-02-16T01:17:50;99883.22;;;-3.27;67.42
49178;BME280;35016;55.674;37.468;2023-02-16T01:20:21;99878.59;;;-3.25;67.21
49178;BME280;35016;55.674;37.468;2023-02-16T01:22:51;99883.91;;;-3.25;67.16
49178;BME280;35016;55.674;37.468;2023-02-16T01:25:19;99882.25;;;-3.26;66.95
49178;BME280;35016;55.674;37.468;2023-02-16T01:27:54;99886.22;;;-3.30;67.33
49178;BME280;35016;55.674;37.468;2023-02-16T01:30:22;99889.69;;;-3.29;67.99
49178;BME280;35016;55.674;37.468;2023-02-16T01:32:50;99881.56;;;-3.28;67.32
49178;BME280;35016;55.674;37.468;2023-02-16T01:37:45;99881.72;;;-3.29;67.31
49178;BME280;35016;55.674;37.468;2023-02-16T01:43:09;99886.03;;;-3.36;67.84
49178;BME280;35016;55.674;37.468;2023-02-16T01:45:53;99889.16;;;-3.41;67.83
49178;BME280;35016;55.674;37.468;2023-02-16T01:48:28;99889.50;;;-3.44;67.38
49178;BME280;35016;55.674;37.468;2023-02-16T01:50:58;99888.00;;;-3.47;67.82
49178;BME280;35016;55.674;37.468;2023-02-16T01:56:29;99886.28;;;-3.48;68.00
49178;BME280;35016;55.674;37.468;2023-02-16T01:59:10;99890.78;;;-3.48;68.19
49178;BME280;35016;55.674;37.468;2023-02-16T02:04:24;99887.81;;;-3.45;68.15
49178;BME280;35016;55.674;37.468;2023-02-16T02:07:15;99883.19;;;-3.43;68.32
49178;BME280;35016;55.674;37.468;2023-02-16T02:09:54;99891.66;;;-3.39;68.12
49178;BME280;35016;55.674;37.468;2023-02-16T02:12:34;99899.59;;;-3.39;67.28
49178;BME280;35016;55.674;37.468;2023-02-16T02:15:03;99889.16;;;-3.41;68.01
49178;BME280;35016;55.674;37.468;2023-02-16T02:17:31;99896.44;;;-3.43;68.01
49178;BME280;35016;55.674;37.468;2023-02-16T02:20:15;99895.28;;;-3.40;68.02
49178;BME280;35016;55.674;37.468;2023-02-16T02:22:56;99891.81;;;-3.41;67.75
49178;BME280;35016;55.674;37.468;2023-02-16T02:25:54;99897.78;;;-3.39;67.95
49178;BME280;35016;55.674;37.468;2023-02-16T02:31:09;99896.63;;;-3.36;67.96
49178;BME280;35016;55.674;37.468;2023-02-16T02:36:44;99900.09;;;-3.44;67.88
49178;BME280;35016;55.674;37.468;2023-02-16T02:39:40;99898.88;;;-3.50;67.75
49178;BME280;35016;55.674;37.468;2023-02-16T02:42:13;99893.06;;;-3.53;67.93
49178;BME280;35016;55.674;37.468;2023-02-16T02:44:51;99888.25;;;-3.58;68.41
49178;BME280;35016;55.674;37.468;2023-02-16T02:47:19;99904.00;;;-3.56;68.58
49178;BME280;35016;55.674;37.468;2023-02-16T02:49:56;99899.53;;;-3.56;68.38
49178;BME280;35016;55.674;37.468;2023-02-16T02:52:23;99901.34;;;-3.56;68.33
49178;BME280;35016;55.674;37.468;2023-02-16T02:54:50;99895.22;;;-3.57;68.36
49178;BME280;35016;55.674;37.468;2023-02-16T02:57:38;99901.50;;;-3.58;68.40
49178;BME280;35016;55.674;37.468;2023-02-16T03:00:32;99901.50;;;-3.58;68.62
49178;BME280;35016;55.674;37.468;2023-02-16T03:03:25;99907.78;;;-3.59;68.46
49178;BME280;35016;55.674;37.468;2023-02-16T03:06:01;99907.94;;;-3.60;67.72
49178;BME280;35016;55.674;37.468;2023-02-16T03:08:33;99910.09;;;-3.64;68.14
49178;BME280;35016;55.674;37.468;2023-02-16T03:11:08;99907.75;;;-3.67;68.74
49178;BME280;35016;55.674;37.468;2023-02-16T03:13:57;99902.94;;;-3.71;67.89
49178;BME280;35016;55.674;37.468;2023-02-16T03:19:49;99894.31;;;-3.73;68.03
49178;BME280;35016;55.674;37.468;2023-02-16T03:22:36;99888.19;;;-3.74;68.78
49178;BME280;35016;55.674;37.468;2023-02-16T03:25:25;99883.56;;;-3.72;68.45
49178;BME280;35016;55.674;37.468;2023-02-16T03:28:11;99887.38;;;-3.75;68.68
49178;BME280;35016;55.674;37.468;2023-02-16T03:31:02;99883.34;;;-3.79;68.48
49178;BME280;35016;55.674;37.468;2023-02-16T03:33:36;99888.97;;;-3.82;68.57
49178;BME280;35016;55.674;37.468;2023-02-16T03:36:07;99881.31;;;-3.85;68.38
49178;BME280;35016;55.674;37.468;2023-02-16T03:38:38;99883.00;;;-3.84;68.21
49178;BME280;35016;55.674;37.468;2023-02-16T03:41:13;99888.28;;;-3.84;68.58
49178;BME280;35016;55.674;37.468;2023-02-16T03:43:40;99884.81;;;-3.84;69.01
49178;BME280;35016;55.674;37.468;2023-02-16T03:46:09;99883.97;;;-3.85;69.04
49178;BME280;35016;55.674;37.468;2023-02-16T03:48:36;99883.97;;;-3.85;69.05
49178;BME280;35016;55.674;37.468;2023-02-16T03:51:04;99882.31;;;-3.86;68.76
49178;BME280;35016;55.674;37.468;2023-02-16T03:53:31;99884.97;;;-3.86;69.35
49178;BME280;35016;55.674;37.468;2023-02-16T03:56:02;99890.25;;;-3.86;68.77
49178;BME280;35016;55.674;37.468;2023-02-16T03:58:33;99880.50;;;-3.85;69.20
49178;BME280;35016;55.674;37.468;2023-02-16T04:01:00;99882.84;;;-3.82;69.40
49178;BME280;35016;55.674;37.468;2023-02-16T04:03:28;99881.84;;;-3.81;68.84
49178;BME280;35016;55.674;37.468;2023-02-16T04:09:08;99871.91;;;-3.79;69.39
49178;BME280;35016;55.674;37.468;2023-02-16T04:11:39;99876.22;;;-3.78;69.24
49178;BME280;35016;55.674;37.468;2023-02-16T04:14:42;99867.28;;;-3.77;69.44
49178;BME280;35016;55.674;37.468;2023-02-16T04:20:02;99876.59;;;-3.73;69.26
49178;BME280;35016;55.674;37.468;2023-02-16T04:22:32;99872.97;;;-3.72;68.65
49178;BME280;35016;55.674;37.468;2023-02-16T04:24:59;99873.63;;;-3.70;69.33
49178;BME280;35016;55.674;37.468;2023-02-16T04:27:26;99871.97;;;-3.71;68.98
49178;BME280;35016;55.674;37.468;2023-02-16T04:29:56;99871.31;;;-3.73;69.35
49178;BME280;35016;55.674;37.468;2023-02-16T04:32:24;99876.75;;;-3.75;68.94
49178;BME280;35016;55.674;37.468;2023-02-16T04:34:51;99880.91;;;-3.72;68.91
49178;BME280;35016;55.674;37.468;2023-02-16T04:37:23;99880.25;;;-3.74;69.51
49178;BME280;35016;55.674;37.468;2023-02-16T04:39:50;99877.88;;;-3.77;68.58
49178;BME280;35016;55.674;37.468;2023-02-16T04:42:18;99876.53;;;-3.81;69.05
49178;BME280;35016;55.674;37.468;2023-02-16T04:44:45;99868.91;;;-3.84;69.17
49178;BME280;35016;55.674;37.468;2023-02-16T04:47:12;99871.88;;;-3.87;69.42
49178;BME280;35016;55.674;37.468;2023-02-16T04:49:43;99863.25;;;-3.89;68.63
49178;BME280;35016;55.674;37.468;2023-02-16T04:52:11;99858.78;;;-3.89;69.34
49178;BME280;35016;55.674;37.468;2023-02-16T04:54:38;99856.81;;;-3.87;69.54
49178;BME280;35016;55.674;37.468;2023-02-16T04:57:06;99863.44;;;-3.83;69.62
49178;BME280;35016;55.674;37.468;2023-02-16T04:59:33;99864.78;;;-3.79;69.63
49178;BME280;35016;55.674;37.468;2023-02-16T05:02:06;99857.84;;;-3.80;68.68
49178;BME280;35016;55.674;37.468;2023-02-16T05:04:34;99855.19;;;-3.80;69.67
49178;BME280;35016;55.674;37.468;2023-02-16T05:07:02;99859.66;;;-3.80;69.40
49178;BME280;35016;55.674;37.468;2023-02-16T05:09:29;99867.44;;;-3.79;69.54
49178;BME280;35016;55.674;37.468;2023-02-16T05:11:56;99862.97;;;-3.78;69.75
49178;BME280;35016;55.674;37.468;2023-02-16T05:14:41;99881.38;;;-3.77;69.63
49178;BME280;35016;55.674;37.468;2023-02-16T05:17:19;99881.22;;;-3.75;69.69
49178;BME280;35016;55.674;37.468;2023-02-16T05:19:48;99876.22;;;-3.78;69.00
49178;BME280;35016;55.674;37.468;2023-02-16T05:22:15;99877.38;;;-3.81;69.77
49178;BME280;35016;55.674;37.468;2023-02-16T05:24:43;99876.84;;;-3.84;69.24
49178;BME280;35016;55.674;37.468;2023-02-16T05:27:11;99880.66;;;-3.87;69.44
49178;BME280;35016;55.674;37.468;2023-02-16T05:29:38;99879.00;;;-3.88;69.40
49178;BME280;35016;55.674;37.468;2023-02-16T05:32:05;99881.81;;;-3.89;69.68
49178;BME280;35016;55.674;37.468;2023-02-16T05:34:32;99883.63;;;-3.90;69.34
49178;BME280;35016;55.674;37.468;2023-02-16T05:36:59;99879.31;;;-3.91;69.27
49178;BME280;35016;55.674;37.468;2023-02-16T05:39:26;99881.81;;;-3.89;69.47
49178;BME280;35016;55.674;37.468;2023-02-16T05:41:53;99882.47;;;-3.87;69.72
49178;BME280;35016;55.674;37.468;2023-02-16T05:44:20;99879.81;;;-3.87;69.83
49178;BME280;35016;55.674;37.468;2023-02-16T05:46:47;99877.84;;;-3.85;69.48
49178;BME280;35016;55.674;37.468;2023-02-16T05:49:15;99879.19;;;-3.81;69.21
49178;BME280;35016;55.674;37.468;2023-02-16T05:51:42;99878.72;;;-3.77;69.45
49178;BME280;35016;55.674;37.468;2023-02-16T05:54:10;99885.16;;;-3.79;69.88
49178;BME280;35016;55.674;37.468;2023-02-16T05:56:46;99877.59;;;-3.74;69.81
49178;BME280;35016;55.674;37.468;2023-02-16T05:59:14;99878.44;;;-3.73;70.03
49178;BME280;35016;55.674;37.468;2023-02-16T06:01:42;99882.72;;;-3.72;69.66
49178;BME280;35016;55.674;37.468;2023-02-16T06:04:10;99881.59;;;-3.70;69.35
49178;BME280;35016;55.674;37.468;2023-02-16T06:06:38;99882.25;;;-3.68;69.21
49178;BME280;35016;55.674;37.468;2023-02-16T06:09:05;99884.75;;;-3.66;69.44
49178;BME280;35016;55.674;37.468;2023-02-16T06:11:34;99877.47;;;-3.64;69.66
49178;BME280;35016;55.674;37.468;2023-02-16T06:14:14;99878.81;;;-3.60;69.15
49178;BME280;35016;55.674;37.468;2023-02-16T06:16:42;99880.97;;;-3.56;69.54
49178;BME280;35016;55.674;37.468;2023-02-16T06:19:12;99878.66;;;-3.51;69.71
49178;BME280;35016;55.674;37.468;2023-02-16T06:21:42;99875.06;;;-3.41;69.67
49178;BME280;35016;55.674;37.468;2023-02-16T06:24:10;99870.63;;;-3.33;69.57
49178;BME280;35016;55.674;37.468;2023-02-16T06:26:37;99867.66;;;-3.22;69.86
49178;BME280;35016;55.674;37.468;2023-02-16T06:29:04;99871.03;;;-3.12;69.86
49178;BME280;35016;55.674;37.468;2023-02-16T06:31:32;99872.69;;;-3.02;69.53
49178;BME280;35016;55.674;37.468;2023-02-16T06:34:02;99872.38;;;-2.91;69.23
49178;BME280;35016;55.674;37.468;2023-02-16T06:36:29;99871.41;;;-2.82;69.68
49178;BME280;35016;55.674;37.468;2023-02-16T06:38:57;99868.09;;;-2.76;69.72
49178;BME280;35016;55.674;37.468;2023-02-16T06:41:25;99867.75;;;-2.73;69.68
49178;BME280;35016;55.674;37.468;2023-02-16T06:44:04;99864.78;;;-2.70;69.21
49178;BME280;35016;55.674;37.468;2023-02-16T06:46:33;99864.59;;;-2.68;69.53
49178;BME280;35016;55.674;37.468;2023-02-16T06:49:00;99870.56;;;-2.66;69.69
49178;BME280;35016;55.674;37.468;2023-02-16T06:51:27;99866.91;;;-2.65;69.21
49178;BME280;35016;55.674;37.468;2023-02-16T06:53:55;99868.41;;;-2.63;68.87
49178;BME280;35016;55.674;37.468;2023-02-16T06:56:22;99870.78;;;-2.60;69.47
49178;BME280;35016;55.674;37.468;2023-02-16T06:58:49;99863.28;;;-2.56;68.92
49178;BME280;35016;55.674;37.468;2023-02-16T07:01:16;99871.91;;;-2.54;68.90
49178;BME280;35016;55.674;37.468;2023-02-16T07:03:50;99866.28;;;-2.51;69.35
49178;BME280;35016;55.674;37.468;2023-02-16T07:06:18;99877.56;;;-2.49;69.24
49178;BME280;35016;55.674;37.468;2023-02-16T07:08:45;99870.59;;;-2.50;68.78
49178;BME280;35016;55.674;37.468;2023-02-16T07:11:12;99869.75;;;-2.51;68.44
49178;BME280;35016;55.674;37.468;2023-02-16T07:13:40;99866.28;;;-2.51;68.79
49178;BME280;35016;55.674;37.468;2023-02-16T07:16:07;99874.06;;;-2.50;68.33
49178;BME280;35016;55.674;37.468;2023-02-16T07:18:37;99869.59;;;-2.49;68.39
49178;BME280;35016;55.674;37.468;2023-02-16T07:21:04;99870.41;;;-2.48;68.70
49178;BME280;35016;55.674;37.468;2023-02-16T07:23:32;99868.59;;;-2.48;68.72
49178;BME280;35016;55.674;37.468;2023-02-16T07:26:02;99862.28;;;-2.47;68.59
49178;BME280;35016;55.674;37.468;2023-02-16T07:28:34;99866.28;;;-2.43;68.56
49178;BME280;35016;55.674;37.468;2023-02-16T07:31:08;99860.78;;;-2.41;67.93
49178;BME280;35016;55.674;37.468;2023-02-16T07:33:36;99856.78;;;-2.37;68.71
49178;BME280;35016;55.674;37.468;2023-02-16T07:36:07;99861.13;;;-2.36;68.77
49178;BME280;35016;55.674;37.468;2023-02-16T07:38:35;99854.97;;;-2.37;68.43
49178;BME280;35016;55.674;37.468;2023-02-16T07:41:02;99856.16;;;-2.31;68.38
49178;BME280;35016;55.674;37.468;2023-02-16T07:43:35;99865.44;;;-2.27;68.53
49178;BME280;35016;55.674;37.468;2023-02-16T07:46:03;99857.13;;;-2.24;68.77
49178;BME280;35016;55.674;37.468;2023-02-16T07:48:37;99852.47;;;-2.22;68.43
49178;BME280;35016;55.674;37.468;2023-02-16T07:51:21;99858.28;;;-2.19;68.64
49178;BME280;35016;55.674;37.468;2023-02-16T07:53:49;99858.78;;;-2.15;68.84
49178;BME280;35016;55.674;37.468;2023-02-16T07:56:19;99850.47;;;-2.12;68.40
49178;BME280;35016;55.674;37.468;2023-02-16T07:58:53;99854.78;;;-2.11;68.68
49178;BME280;35016;55.674;37.468;2023-02-16T08:01:21;99852.44;;;-2.06;68.65
49178;BME280;35016;55.674;37.468;2023-02-16T08:03:48;99853.09;;;-2.04;68.62
49178;BME280;35016;55.674;37.468;2023-02-16T08:06:15;99852.44;;;-2.06;68.71
49178;BME280;35016;55.674;37.468;2023-02-16T08:08:43;99849.78;;;-2.06;68.57
49178;BME280;35016;55.674;37.468;2023-02-16T08:11:14;99852.78;;;-2.01;68.83
49178;BME280;35016;55.674;37.468;2023-02-16T08:13:42;99850.75;;;-1.91;68.68
49178;BME280;35016;55.674;37.468;2023-02-16T08:19:26;99850.19;;;-1.78;68.88
49178;BME280;35016;55.674;37.468;2023-02-16T08:21:54;99855.34;;;-1.76;69.02
49178;BME280;35016;55.674;37.468;2023-02-16T08:24:25;99850.84;;;-1.76;68.92
49178;BME280;35016;55.674;37.468;2023-02-16T08:26:54;99851.50;;;-1.74;68.76
49178;BME280;35016;55.674;37.468;2023-02-16T08:32:22;99847.34;;;-1.68;69.20
49178;BME280;35016;55.674;37.468;2023-02-16T08:34:49;99847.34;;;-1.68;68.57
49178;BME280;35016;55.674;37.468;2023-02-16T08:37:16;99853.50;;;-1.68;68.63
49178;BME280;35016;55.674;37.468;2023-02-16T08:39:43;99845.19;;;-1.65;68.35
49178;BME280;35016;55.674;37.468;2023-02-16T08:42:10;99859.63;;;-1.59;68.68
49178;BME280;35016;55.674;37.468;2023-02-16T08:44:39;99844.09;;;-1.47;68.77
49178;BME280;35016;55.674;37.468;2023-02-16T08:47:07;99844.91;;;-1.39;68.44
49178;BME280;35016;55.674;37.468;2023-02-16T08:49:36;99838.22;;;-1.35;68.36
49178;BME280;35016;55.674;37.468;2023-02-16T08:52:04;99847.16;;;-1.28;68.05
49178;BME280;35016;55.674;37.468;2023-02-16T08:54:31;99849.94;;;-1.21;68.00
49178;BME280;35016;55.674;37.468;2023-02-16T08:56:59;99845.47;;;-1.20;67.80
49178;BME280;35016;55.674;37.468;2023-02-16T08:59:28;99848.94;;;-1.20;67.74
49178;BME280;35016;55.674;37.468;2023-02-16T09:01:56;99844.44;;;-1.19;68.07
49178;BME280;35016;55.674;37.468;2023-02-16T09:04:24;99836.66;;;-1.21;68.33
49178;BME280;35016;55.674;37.468;2023-02-16T09:06:52;99841.78;;;-1.19;68.45
49178;BME280;35016;55.674;37.468;2023-02-16T09:09:19;99837.13;;;-1.17;68.20
49178;BME280;35016;55.674;37.468;2023-02-16T09:11:46;99846.28;;;-1.20;67.77
49178;BME280;35016;55.674;37.468;2023-02-16T09:14:16;99839.00;;;-1.26;67.16
49178;BME280;35016;55.674;37.468;2023-02-16T09:16:43;99836.03;;;-1.31;67.11
49178;BME280;35016;55.674;37.468;2023-02-16T09:19:12;99834.44;;;-1.40;67.56
49178;BME280;35016;55.674;37.468;2023-02-16T09:21:40;99836.78;;;-1.45;67.64
49178;BME280;35016;55.674;37.468;2023-02-16T09:24:08;99838.28;;;-1.51;67.54
49178;BME280;35016;55.674;37.468;2023-02-16T09:26:40;99837.50;;;-1.60;67.60
49178;BME280;35016;55.674;37.468;2023-02-16T09:29:21;99833.53;;;-1.64;67.81
49178;BME280;35016;55.674;37.468;2023-02-16T09:31:49;99833.69;;;-1.57;68.10
49178;BME280;35016;55.674;37.468;2023-02-16T09:34:25;99828.97;;;-1.47;68.00
49178;BME280;35016;55.674;37.468;2023-02-16T09:36:53;99824.94;;;-1.35;68.15
49178;BME280;35016;55.674;37.468;2023-02-16T09:43:50;99829.94;;;-1.09;68.30
49178;BME280;35016;55.674;37.468;2023-02-16T09:46:21;99827.28;;;-1.09;67.98
49178;BME280;35016;55.674;37.468;2023-02-16T09:48:56;99819.94;;;-1.07;68.12
49178;BME280;35016;55.674;37.468;2023-02-16T09:51:42;99820.59;;;-1.05;67.88
49178;BME280;35016;55.674;37.468;2023-02-16T09:56:44;99825.28;;;-1.07;67.78
49178;BME280;35016;55.674;37.468;2023-02-16T10:04:49;99824.56;;;-1.01;67.94
49178;BME280;35016;55.674;37.468;2023-02-16T10:10:17;99812.31;;;-1.10;67.31
49178;BME280;35016;55.674;37.468;2023-02-16T10:12:51;99815.34;;;-1.13;67.84
49178;BME280;35016;55.674;37.468;2023-02-16T10:15:21;99806.53;;;-1.13;68.13
49178;BME280;35016;55.674;37.468;2023-02-16T10:18:24;99799.03;;;-1.18;68.11
49178;BME280;35016;55.674;37.468;2023-02-16T10:20:45;99818.19;;;-1.22;67.79
49178;BME280;35016;55.674;37.468;2023-02-16T10:33:45;99798.63;;;-1.61;65.83
49178;BME280;35016;55.674;37.468;2023-02-16T10:36:29;99804.19;;;-1.70;66.50
49178;BME280;35016;55.674;37.468;2023-02-16T10:41:39;99799.88;;;-1.79;67.82
49178;BME280;35016;55.674;37.468;2023-02-16T10:44:14;99803.88;;;-1.83;67.07
49178;BME280;35016;55.674;37.468;2023-02-16T10:46:48;99803.41;;;-1.87;67.57
49178;BME280;35016;55.674;37.468;2023-02-16T10:49:16;99809.88;;;-1.90;67.41
49178;BME280;35016;55.674;37.468;2023-02-16T10:51:46;99808.41;;;-1.92;66.57
49178;BME280;35016;55.674;37.468;2023-02-16T10:54:16;99800.94;;;-1.97;67.26
49178;BME280;35016;55.674;37.468;2023-02-16T10:56:49;99806.78;;;-2.01;67.35
49178;BME280;35016;55.674;37.468;2023-02-16T10:59:41;99797.47;;;-2.05;66.61
49178;BME280;35016;55.674;37.468;2023-02-16T11:02:19;99805.59;;;-2.07;67.02
49178;BME280;35016;55.674;37.468;2023-02-16T11:04:52;99793.97;;;-2.06;67.14
49178;BME280;35016;55.674;37.468;2023-02-16T11:07:21;99798.13;;;-2.03;67.77
49178;BME280;35016;55.674;37.468;2023-02-16T11:09:50;99789.66;;;-1.99;66.94
49178;BME280;35016;55.674;37.468;2023-02-16T11:12:31;99795.47;;;-1.95;66.96
49178;BME280;35016;55.674;37.468;2023-02-16T11:17:50;99787.66;;;-1.97;67.10
49178;BME280;35016;55.674;37.468;2023-02-16T11:22:53;99789.66;;;-1.99;67.35
49178;BME280;35016;55.674;37.468;2023-02-16T11:25:40;99783.19;;;-1.96;67.37
49178;BME280;35016;55.674;37.468;2023-02-16T11:28:08;99791.94;;;-1.88;67.79
49178;BME280;35016;55.674;37.468;2023-02-16T11:30:39;99786.75;;;-1.73;67.43
49178;BME280;35016;55.674;37.468;2023-02-16T11:33:23;99781.19;;;-1.63;67.54
49178;BME280;35016;55.674;37.468;2023-02-16T11:35:53;99782.97;;;-1.56;67.43
49178;BME280;35016;55.674;37.468;2023-02-16T11:38:30;99789.78;;;-1.53;65.75
49178;BME280;35016;55.674;37.468;2023-02-16T11:40:58;99790.47;;;-1.59;65.11
49178;BME280;35016;55.674;37.468;2023-02-16T11:43:27;99787.22;;;-1.69;65.52
49178;BME280;35016;55.674;37.468;2023-02-16T11:45:55;99790.06;;;-1.79;65.25
49178;BME280;35016;55.674;37.468;2023-02-16T11:48:25;99784.44;;;-1.84;65.67
49178;BME280;35016;55.674;37.468;2023-02-16T11:53:30;99789.41;;;-1.81;66.38
49178;BME280;35016;55.674;37.468;2023-02-16T11:59:01;99788.06;;;-1.77;65.58
49178;BME280;35016;55.674;37.468;2023-02-16T12:01:43;99783.75;;;-1.78;65.47
49178;BME280;35016;55.674;37.468;2023-02-16T12:12:17;99775.59;;;-1.76;65.18
49178;BME280;35016;55.674;37.468;2023-02-16T12:14:56;99781.09;;;-1.78;64.90
49178;BME280;35016;55.674;37.468;2023-02-16T12:20:02;99777.31;;;-1.83;65.46
49178;BME280;35016;55.674;37.468;2023-02-16T12:22:55;99776.66;;;-1.85;65.69
49178;BME280;35016;55.674;37.468;2023-02-16T12:25:34;99776.16;;;-1.89;66.08
49178;BME280;35016;55.674;37.468;2023-02-16T12:28:23;99785.13;;;-1.90;66.58
49178;BME280;35016;55.674;37.468;2023-02-16T12:36:07;99778.47;;;-1.86;66.16
49178;BME280;35016;55.674;37.468;2023-02-16T12:38:53;99772.69;;;-1.90;66.57
49178;BME280;35016;55.674;37.468;2023-02-16T12:44:17;99787.16;;;-1.92;66.90
49178;BME280;35016;55.674;37.468;2023-02-16T12:46:49;99786.31;;;-1.93;67.11
49178;BME280;35016;55.674;37.468;2023-02-16T12:49:25;99795.28;;;-1.94;67.12
49178;BME280;35016;55.674;37.468;2023-02-16T12:51:58;99788.66;;;-1.98;66.56
49178;BME280;35016;55.674;37.468;2023-02-16T12:54:31;99795.47;;;-2.03;66.02
49178;BME280;35016;55.674;37.468;2023-02-16T12:57:13;99792.84;;;-2.11;65.62
49178;BME280;35016;55.674;37.468;2023-02-16T12:59:48;99793.69;;;-2.19;65.63
49178;BME280;35016;55.674;37.468;2023-02-16T13:02:37;99787.25;;;-2.25;66.08
49178;BME280;35016;55.674;37.468;2023-02-16T13:05:26;99790.91;;;-2.26;65.93
49178;BME280;35016;55.674;37.468;2023-02-16T13:07:59;99784.94;;;-2.28;65.99
49178;BME280;35016;55.674;37.468;2023-02-16T13:13:26;99786.59;;;-2.35;66.45
49178;BME280;35016;55.674;37.468;2023-02-16T13:16:06;99776.78;;;-2.34;66.54
49178;BME280;35016;55.674;37.468;2023-02-16T13:18:54;99788.59;;;-2.37;66.50
49178;BME280;35016;55.674;37.468;2023-02-16T13:29:02;99781.97;;;-2.41;66.62
49178;BME280;35016;55.674;37.468;2023-02-16T13:35:05;99787.28;;;-2.41;66.86
49178;BME280;35016;55.674;37.468;2023-02-16T13:40:40;99784.16;;;-2.53;66.92
49178;BME280;35016;55.674;37.468;2023-02-16T13:43:46;99785.81;;;-2.60;67.06
49178;BME280;35016;55.674;37.468;2023-02-16T13:48:58;99779.34;;;-2.73;66.62
49178;BME280;35016;55.674;37.468;2023-02-16T13:51:58;99779.03;;;-2.78;66.96
49178;BME280;35016;55.674;37.468;2023-02-16T13:54:45;99786.00;;;-2.77;67.06
49178;BME280;35016;55.674;37.468;2023-02-16T14:00:36;99786.97;;;-2.70;67.33
49178;BME280;35016;55.674;37.468;2023-02-16T14:03:39;99789.94;;;-2.65;66.82
49178;BME280;35016;55.674;37.468;2023-02-16T14:13:10;99782.97;;;-2.66;67.54
49178;BME280;35016;55.674;37.468;2023-02-16T14:15:56;99777.50;;;-2.65;66.88
49178;BME280;35016;55.674;37.468;2023-02-16T14:31:37;99783.19;;;-2.84;66.45
49178;BME280;35016;55.674;37.468;2023-02-16T14:34:33;99786.66;;;-2.84;66.88
49178;BME280;35016;55.674;37.468;2023-02-16T14:41:12;99789.97;;;-2.82;66.10
49178;BME280;35016;55.674;37.468;2023-02-16T14:49:23;99793.47;;;-2.81;67.08
49178;BME280;35016;55.674;37.468;2023-02-16T14:54:40;99784.81;;;-2.75;67.42
49178;BME280;35016;55.674;37.468;2023-02-16T14:57:15;99780.00;;;-2.71;67.65
49178;BME280;35016;55.674;37.468;2023-02-16T14:59:53;99778.03;;;-2.69;67.44
49178;BME280;35016;55.674;37.468;2023-02-16T15:05:55;99782.19;;;-2.59;67.43
49178;BME280;35016;55.674;37.468;2023-02-16T15:08:35;99783.16;;;-2.60;67.23
49178;BME280;35016;55.674;37.468;2023-02-16T15:11:20;99783.16;;;-2.60;67.21
49178;BME280;35016;55.674;37.468;2023-02-16T15:17:04;99789.97;;;-2.57;67.14
49178;BME280;35016;55.674;37.468;2023-02-16T15:19:32;99789.97;;;-2.57;67.07
49178;BME280;35016;55.674;37.468;2023-02-16T15:22:24;99791.78;;;-2.58;67.53
49178;BME280;35016;55.674;37.468;2023-02-16T15:25:01;99785.00;;;-2.60;67.87
49178;BME280;35016;55.674;37.468;2023-02-16T15:27:29;99784.31;;;-2.62;67.67
49178;BME280;35016;55.674;37.468;2023-02-16T15:30:19;99780.81;;;-2.63;67.59
49178;BME280;35016;55.674;37.468;2023-02-16T15:32:53;99788.13;;;-2.65;67.00
49178;BME280;35016;55.674;37.468;2023-02-16T15:35:22;99786.63;;;-2.67;67.64
49178;BME280;35016;55.674;37.468;2023-02-16T15:40:43;99781.34;;;-2.75;67.88
49178;BME280;35016;55.674;37.468;2023-02-16T15:45:48;99784.50;;;-2.72;67.52
49178;BME280;35016;55.674;37.468;2023-02-16T15:48:30;99787.16;;;-2.72;67.82
49178;BME280;35016;55.674;37.468;2023-02-16T15:54:35;99787.66;;;-2.76;67.70
49178;BME280;35016;55.674;37.468;2023-02-16T15:57:18;99786.47;;;-2.74;67.82
49178;BME280;35016;55.674;37.468;2023-02-16T15:59:51;99783.31;;;-2.69;67.95
49178;BME280;35016;55.674;37.468;2023-02-16T16:02:34;99788.47;;;-2.68;67.60
49178;BME280;35016;55.674;37.468;2023-02-16T16:05:24;99782.50;;;-2.70;67.78
49178;BME280;35016;55.674;37.468;2023-02-16T16:07:52;99790.78;;;-2.73;67.53
49178;BME280;35016;55.674;37.468;2023-02-16T16:10:30;99789.78;;;-2.72;68.06
49178;BME280;35016;55.674;37.468;2023-02-16T16:13:17;99791.28;;;-2.69;67.94
49178;BME280;35016;55.674;37.468;2023-02-16T16:15:47;99784.47;;;-2.64;67.74